createdAt,value
2023-04-05T00:02:04.476Z,0.10
2023-04-05T00:04:57.794Z,0.00
2023-04-05T00:07:48.466Z,1.95
2023-04-05T00:10:38.411Z,0.20
2023-04-05T00:13:27.766Z,0.10
2023-04-05T00:16:17.788Z,0.20
2023-04-05T00:19:07.261Z,1.17
2023-04-05T00:21:57.453Z,0.00
2023-04-05T00:24:50.370Z,0.00
2023-04-05T00:27:39.339Z,0.00
2023-04-05T00:30:30.139Z,0.40
2023-04-05T00:33:19.378Z,0.40
2023-04-05T00:36:13.403Z,1.45
2023-04-05T00:39:02.736Z,0.20
2023-04-05T00:41:53.451Z,0.10
2023-04-05T00:44:42.518Z,0.10
2023-04-05T00:47:31.867Z,0.00
2023-04-05T00:50:21.736Z,0.10
2023-04-05T00:53:11.463Z,0.00
2023-04-05T00:56:01.508Z,1.08
2023-04-05T00:58:53.422Z,0.00
2023-04-05T01:01:43.610Z,0.85
2023-04-05T01:04:33.402Z,0.40
2023-04-05T01:07:27.942Z,0.10
2023-04-05T01:10:19.321Z,0.10
2023-04-05T01:13:08.922Z,0.10
2023-04-05T01:15:59.614Z,0.20
2023-04-05T01:18:49.051Z,0.20
2023-04-05T01:21:55.995Z,1.55
2023-04-05T01:24:57.823Z,0.17
2023-04-05T01:28:05.267Z,0.22
2023-04-05T01:30:59.727Z,0.80
2023-04-05T01:33:55.926Z,0.13
2023-04-05T01:36:48.585Z,1.65
2023-04-05T01:39:38.379Z,0.17
2023-04-05T01:42:28.153Z,0.70
2023-04-05T01:45:19.287Z,1.23
2023-04-05T01:48:11.062Z,0.35
2023-04-05T01:51:00.136Z,0.65
2023-04-05T01:53:49.274Z,0.20
2023-04-05T01:56:38.568Z,0.22
2023-04-05T01:59:29.019Z,0.00
2023-04-05T02:02:18.244Z,0.10
2023-04-05T02:05:10.282Z,0.00
2023-04-05T02:07:59.239Z,0.10
2023-04-05T02:10:49.275Z,1.25
2023-04-05T02:13:38.527Z,0.10
2023-04-05T02:16:28.017Z,0.00
2023-04-05T02:19:23.339Z,0.25
2023-04-05T02:22:14.340Z,0.22
2023-04-05T02:25:06.377Z,0.55
2023-04-05T02:27:55.795Z,0.00
2023-04-05T02:30:45.507Z,0.10
2023-04-05T02:33:35.221Z,0.30
2023-04-05T02:36:24.424Z,0.10
2023-04-05T02:39:15.460Z,0.10
2023-04-05T02:42:07.429Z,0.75
2023-04-05T02:44:56.685Z,0.00
2023-04-05T02:47:45.982Z,0.17
2023-04-05T02:50:35.219Z,0.17
2023-04-05T02:53:24.329Z,1.50
2023-04-05T02:56:15.039Z,0.08
2023-04-05T02:59:05.196Z,0.08
2023-04-05T03:01:54.600Z,0.15
2023-04-05T03:04:45.217Z,0.00
2023-04-05T03:07:35.705Z,0.10
2023-04-05T03:10:26.321Z,0.73
2023-04-05T03:13:17.076Z,0.30
2023-04-05T03:16:06.889Z,0.10
2023-04-05T03:18:56.196Z,2.65
2023-04-05T03:21:45.379Z,0.00
2023-04-05T03:24:35.985Z,0.57
2023-04-05T03:27:26.203Z,0.22
2023-04-05T03:30:17.202Z,0.00
2023-04-05T03:33:06.969Z,1.55
2023-04-05T03:35:56.180Z,0.32
2023-04-05T03:38:48.008Z,0.35
2023-04-05T03:41:36.925Z,0.10
2023-04-05T03:44:27.153Z,1.75
2023-04-05T03:47:18.392Z,0.00
2023-04-05T03:50:09.537Z,0.68
2023-04-05T03:53:01.469Z,0.00
2023-04-05T03:55:54.278Z,1.65
2023-04-05T03:58:45.117Z,0.20
2023-04-05T04:01:37.343Z,0.28
2023-04-05T04:04:30.755Z,0.00
2023-04-05T04:07:25.066Z,0.30
2023-04-05T04:10:18.050Z,0.20
2023-04-05T04:13:06.794Z,1.77
2023-04-05T04:15:56.046Z,4.90
2023-04-05T04:18:46.756Z,0.30
2023-04-05T04:21:41.829Z,0.00
2023-04-05T04:24:32.597Z,0.45
2023-04-05T04:27:21.446Z,3.65
2023-04-05T04:30:11.261Z,1.63
2023-04-05T04:33:06.636Z,0.50
2023-04-05T04:35:56.931Z,0.85
2023-04-05T04:38:51.393Z,4.57
2023-04-05T04:41:44.780Z,0.57
2023-04-05T04:44:33.578Z,0.52
2023-04-05T04:47:23.223Z,2.55
2023-04-05T04:50:12.922Z,0.43
2023-04-05T04:53:02.346Z,1.80
2023-04-05T04:55:52.783Z,2.65
2023-04-05T04:58:41.769Z,1.48
2023-04-05T05:01:30.662Z,1.77
2023-04-05T05:04:19.421Z,1.90
2023-04-05T05:07:08.011Z,2.20
2023-04-05T05:09:56.991Z,3.60
2023-04-05T05:12:49.902Z,0.98
2023-04-05T05:15:40.971Z,0.38
2023-04-05T05:18:29.565Z,2.90
2023-04-05T05:21:18.215Z,1.15
2023-04-05T05:24:09.974Z,0.10
2023-04-05T05:26:58.567Z,0.10
2023-04-05T05:29:48.823Z,4.85
2023-04-05T05:32:37.515Z,0.32
2023-04-05T05:35:26.183Z,0.68
2023-04-05T05:38:15.044Z,1.55
2023-04-05T05:41:03.704Z,2.35
2023-04-05T05:43:53.739Z,1.02
2023-04-05T05:46:43.759Z,0.82
2023-04-05T05:49:32.363Z,2.28
2023-04-05T05:52:21.162Z,0.40
2023-04-05T05:55:10.403Z,2.00
2023-04-05T05:57:59.245Z,0.30
2023-04-05T06:00:50.486Z,1.00
2023-04-05T06:03:40.873Z,1.33
2023-04-05T06:06:30.087Z,0.30
2023-04-05T06:09:18.706Z,3.15
2023-04-05T06:12:10.771Z,0.80
2023-04-05T06:14:59.684Z,11.40
2023-04-05T06:17:48.383Z,13.77
2023-04-05T06:20:41.387Z,0.10
2023-04-05T06:23:30.698Z,1.02
2023-04-05T06:26:20.711Z,3.97
2023-04-05T06:29:10.319Z,0.50
2023-04-05T06:31:58.954Z,1.90
2023-04-05T06:34:48.994Z,6.10
2023-04-05T06:37:39.307Z,2.00
2023-04-05T06:40:28.040Z,0.43
2023-04-05T06:43:16.778Z,0.88
2023-04-05T06:46:08.973Z,1.65
2023-04-05T06:48:57.618Z,1.98
2023-04-05T06:51:46.294Z,3.03
2023-04-05T06:54:36.492Z,3.65
2023-04-05T06:57:25.071Z,0.08
2023-04-05T07:00:17.374Z,0.52
2023-04-05T07:03:06.543Z,0.50
2023-04-05T07:05:56.937Z,3.20
2023-04-05T07:08:45.889Z,1.27
2023-04-05T07:11:36.357Z,0.10
2023-04-05T07:14:25.057Z,0.30
2023-04-05T07:17:13.797Z,0.65
2023-04-05T07:20:02.376Z,0.63
2023-04-05T07:22:51.000Z,0.00
2023-04-05T07:25:41.498Z,0.47
2023-04-05T07:28:32.148Z,0.05
2023-04-05T07:31:20.857Z,0.10
2023-04-05T07:34:09.615Z,0.10
2023-04-05T07:36:58.270Z,2.20
2023-04-05T07:39:46.857Z,0.35
2023-04-05T07:42:35.490Z,1.75
2023-04-05T07:45:25.539Z,0.00
2023-04-05T07:48:14.217Z,0.00
2023-04-05T07:51:07.213Z,0.10
2023-04-05T07:53:56.169Z,0.20
2023-04-05T07:56:44.922Z,0.10
2023-04-05T07:59:33.891Z,1.20
2023-04-05T08:02:23.853Z,0.75
2023-04-05T08:05:12.545Z,0.70
2023-04-05T08:08:01.377Z,0.28
2023-04-05T08:10:50.048Z,0.00
2023-04-05T08:13:40.566Z,0.10
2023-04-05T08:16:29.532Z,0.98
2023-04-05T08:19:19.524Z,1.35
2023-04-05T08:22:08.438Z,0.68
2023-04-05T08:24:57.178Z,0.10
2023-04-05T08:27:46.165Z,0.68
2023-04-05T08:30:34.759Z,0.15
2023-04-05T08:33:23.477Z,0.10
2023-04-05T08:36:13.515Z,0.20
2023-04-05T08:39:02.218Z,0.10
2023-04-05T08:41:58.146Z,0.20
2023-04-05T08:44:47.291Z,3.95
2023-04-05T08:47:37.414Z,0.20
2023-04-05T08:50:27.358Z,0.00
2023-04-05T08:53:17.399Z,1.27
2023-04-05T08:56:06.493Z,0.00
2023-04-05T08:58:59.751Z,0.95
2023-04-05T09:01:49.592Z,0.00
2023-04-05T09:04:40.446Z,3.50
2023-04-05T09:07:31.322Z,5.15
2023-04-05T09:10:23.310Z,0.17
2023-04-05T09:13:12.689Z,0.20
2023-04-05T09:16:03.298Z,0.20
2023-04-05T09:18:51.907Z,1.75
2023-04-05T09:22:05.380Z,0.00
2023-04-05T09:24:53.966Z,0.20
2023-04-05T09:27:57.502Z,0.00
2023-04-05T09:30:48.121Z,0.00
2023-04-05T09:33:36.860Z,0.13
2023-04-05T09:36:25.707Z,0.05
2023-04-05T09:39:16.176Z,0.00
2023-04-05T09:42:09.652Z,2.20
2023-04-05T09:45:02.379Z,0.08
2023-04-05T09:47:58.192Z,0.65
2023-04-05T09:50:47.023Z,0.00
2023-04-05T09:53:35.691Z,1.30
2023-04-05T09:56:24.291Z,0.47
2023-04-05T09:59:14.072Z,0.05
2023-04-05T10:02:04.138Z,1.77
2023-04-05T10:04:53.254Z,0.08
2023-04-05T10:07:42.217Z,0.00
2023-04-05T10:10:31.029Z,0.25
2023-04-05T10:13:20.583Z,0.00
2023-04-05T10:16:11.183Z,0.35
2023-04-05T10:19:05.948Z,0.32
2023-04-05T10:21:55.995Z,0.00
2023-04-05T10:24:50.595Z,1.70
2023-04-05T10:27:49.381Z,0.20
2023-04-05T10:30:49.860Z,0.30
2023-04-05T10:33:42.818Z,0.03
2023-04-05T10:36:40.149Z,0.28
2023-04-05T10:39:30.852Z,0.25
2023-04-05T10:42:22.630Z,0.08
2023-04-05T10:45:15.529Z,0.05
2023-04-05T10:48:11.283Z,0.00
2023-04-05T10:51:00.316Z,0.20
2023-04-05T10:53:50.924Z,0.00
2023-04-05T10:56:39.812Z,0.00
2023-04-05T10:59:29.704Z,1.85
2023-04-05T11:02:20.554Z,0.20
2023-04-05T11:05:34.110Z,0.00
2023-04-05T11:08:22.921Z,0.03
2023-04-05T11:11:13.612Z,0.20
2023-04-05T11:14:02.263Z,0.00
2023-04-05T11:16:55.390Z,0.00
2023-04-05T11:19:52.369Z,0.05
2023-04-05T11:22:41.144Z,0.00
2023-04-05T11:25:29.993Z,0.00
2023-04-05T11:28:28.662Z,0.00
2023-04-05T11:31:19.330Z,1.55
2023-04-05T11:34:11.138Z,0.10
2023-04-05T11:36:59.722Z,0.17
2023-04-05T11:39:48.675Z,0.30
2023-04-05T11:42:37.827Z,0.00
2023-04-05T11:45:29.332Z,0.00
2023-04-05T11:48:19.958Z,0.50
2023-04-05T11:51:10.551Z,1.65
2023-04-05T11:53:59.157Z,0.38
2023-04-05T11:56:53.062Z,0.30
2023-04-05T11:59:41.724Z,0.10
2023-04-05T12:02:36.067Z,0.25
2023-04-05T12:05:24.832Z,0.00
2023-04-05T12:08:13.476Z,0.52
2023-04-05T12:11:02.237Z,0.35
2023-04-05T12:13:50.949Z,0.10
2023-04-05T12:16:50.415Z,0.65
2023-04-05T12:19:40.589Z,0.22
2023-04-05T12:22:29.253Z,0.35
2023-04-05T12:25:18.320Z,0.98
2023-04-05T12:28:09.021Z,0.75
2023-04-05T12:30:58.878Z,0.00
2023-04-05T12:33:47.519Z,0.00
2023-04-05T12:36:37.597Z,0.05
2023-04-05T12:39:31.991Z,1.92
2023-04-05T12:42:21.112Z,0.08
2023-04-05T12:45:13.433Z,0.00
2023-04-05T12:48:02.173Z,0.00
2023-04-05T12:50:54.576Z,0.00
2023-04-05T12:53:48.425Z,0.03
2023-04-05T12:56:37.444Z,0.75
2023-04-05T12:59:26.338Z,0.00
2023-04-05T13:02:15.060Z,0.45
2023-04-05T13:05:03.690Z,0.10
2023-04-05T13:07:52.680Z,0.00
2023-04-05T13:10:42.802Z,0.00
2023-04-05T13:13:31.771Z,0.28
2023-04-05T13:16:20.377Z,0.00
2023-04-05T13:19:08.958Z,2.40
2023-04-05T13:21:57.602Z,0.00
2023-04-05T13:24:48.608Z,0.10
2023-04-05T13:27:38.581Z,0.52
2023-04-05T13:30:27.658Z,0.00
2023-04-05T13:33:16.315Z,0.32
2023-04-05T13:36:05.116Z,0.00
2023-04-05T13:38:53.821Z,0.00
2023-04-05T13:41:42.444Z,0.00
2023-04-05T13:44:32.386Z,0.43
2023-04-05T13:47:21.128Z,5.82
2023-04-05T13:50:10.390Z,12.43
2023-04-05T13:52:59.106Z,3.33
2023-04-05T13:55:47.749Z,1.95
2023-04-05T13:58:36.505Z,1.20
2023-04-05T14:01:26.638Z,0.30
2023-04-05T14:04:15.492Z,1.50
2023-04-05T14:07:04.298Z,0.32
2023-04-05T14:09:52.968Z,0.50
2023-04-05T14:12:41.543Z,3.33
2023-04-05T14:15:31.003Z,3.20
2023-04-05T14:18:21.163Z,1.70
2023-04-05T14:21:10.023Z,1.00
2023-04-05T14:23:58.735Z,0.47
2023-04-05T14:26:49.860Z,1.00
2023-04-05T14:29:38.705Z,0.47
2023-04-05T14:32:27.677Z,0.52
2023-04-05T14:35:17.960Z,0.63
2023-04-05T14:38:06.709Z,0.45
2023-04-05T14:40:55.643Z,2.15
2023-04-05T14:43:44.445Z,0.60
2023-04-05T14:46:33.238Z,0.57
2023-04-05T14:49:21.988Z,0.35
2023-04-05T14:52:12.215Z,0.77
2023-04-05T14:55:01.190Z,2.58
2023-04-05T14:57:50.026Z,0.65
2023-04-05T15:00:38.973Z,0.85
2023-04-05T15:03:27.998Z,2.38
2023-04-05T15:06:17.527Z,0.60
2023-04-05T15:09:07.630Z,1.35
2023-04-05T15:11:56.697Z,1.90
2023-04-05T15:14:45.770Z,0.75
2023-04-05T15:17:34.751Z,0.73
2023-04-05T15:20:23.501Z,2.13
2023-04-05T15:23:12.336Z,2.40
2023-04-05T15:26:02.501Z,0.90
2023-04-05T15:28:51.214Z,9.43
2023-04-05T15:31:41.432Z,2.85
2023-04-05T15:34:31.448Z,3.42
2023-04-05T15:37:20.309Z,2.85
2023-04-05T15:40:10.359Z,1.20
2023-04-05T15:43:00.797Z,2.72
2023-04-05T15:45:49.657Z,3.25
2023-04-05T15:48:38.367Z,1.05
2023-04-05T15:51:27.253Z,2.88
2023-04-05T15:54:18.851Z,0.85
2023-04-05T15:57:07.943Z,1.23
2023-04-05T15:59:58.097Z,3.30
2023-04-05T16:02:49.934Z,1.77
2023-04-05T16:05:38.902Z,3.13
2023-04-05T16:08:27.634Z,3.33
2023-04-05T16:11:16.435Z,7.05
2023-04-05T16:14:05.477Z,2.45
2023-04-05T16:16:55.691Z,2.70
2023-04-05T16:19:44.508Z,1.08
2023-04-05T16:22:33.214Z,1.13
2023-04-05T16:25:22.631Z,1.63
2023-04-05T16:28:12.285Z,3.63
2023-04-05T16:31:01.145Z,0.52
2023-04-05T16:33:52.654Z,1.90
2023-04-05T16:36:41.900Z,0.38
2023-04-05T16:39:30.896Z,1.30
2023-04-05T16:42:19.668Z,4.63
2023-04-05T16:45:09.213Z,0.95
2023-04-05T16:47:58.060Z,9.05
2023-04-05T16:50:48.530Z,1.63
2023-04-05T16:53:37.365Z,10.18
2023-04-05T16:56:26.288Z,4.10
2023-04-05T16:59:15.165Z,4.47
2023-04-05T17:02:04.009Z,1.15
2023-04-05T17:04:54.131Z,3.33
2023-04-05T17:07:44.321Z,3.22
2023-04-05T17:10:33.032Z,1.17
2023-04-05T17:13:21.858Z,1.15
2023-04-05T17:16:10.643Z,5.85
2023-04-05T17:18:59.415Z,42.15
2023-04-05T17:21:48.773Z,78.38
2023-04-05T17:24:39.537Z,127.60
2023-04-05T17:27:28.288Z,146.82
2023-04-05T17:30:17.728Z,170.85
2023-04-05T17:33:06.609Z,184.48
2023-04-05T17:35:55.451Z,202.77
2023-04-05T17:38:44.403Z,221.32
2023-04-05T17:41:34.696Z,224.73
2023-04-05T17:44:23.478Z,219.35
2023-04-05T17:47:12.277Z,191.57
2023-04-05T17:50:01.076Z,188.02
2023-04-05T17:52:49.903Z,148.65
2023-04-05T17:55:38.953Z,130.88
2023-04-05T17:58:30.341Z,130.65
2023-04-05T18:01:19.113Z,125.68
2023-04-05T18:04:10.241Z,103.38
2023-04-05T18:07:01.345Z,99.00
2023-04-05T18:09:50.305Z,93.65
2023-04-05T18:12:39.063Z,85.22
2023-04-05T18:15:29.274Z,54.53
2023-04-05T18:18:18.029Z,62.03
2023-04-05T18:21:06.841Z,61.78
2023-04-05T18:23:56.488Z,50.90
2023-04-05T18:26:45.355Z,52.75
2023-04-05T18:29:37.998Z,43.75
2023-04-05T18:32:28.496Z,42.17
2023-04-05T18:35:17.583Z,52.17
2023-04-05T18:38:06.690Z,37.85
2023-04-05T18:41:03.394Z,37.40
2023-04-05T18:43:54.560Z,31.55
2023-04-05T18:46:44.205Z,25.40
2023-04-05T18:49:37.027Z,26.98
2023-04-05T18:52:27.399Z,24.58
2023-04-05T18:55:16.623Z,19.10
2023-04-05T18:58:05.521Z,20.65
2023-04-05T19:00:54.466Z,16.60
2023-04-05T19:03:43.496Z,14.55
2023-04-05T19:06:34.736Z,9.75
2023-04-05T19:09:23.564Z,16.92
2023-04-05T19:12:15.356Z,13.20
2023-04-05T19:15:05.200Z,12.98
2023-04-05T19:17:54.021Z,9.98
2023-04-05T19:20:42.985Z,9.07
2023-04-05T19:23:33.336Z,9.75
2023-04-05T19:26:22.639Z,11.57
2023-04-05T19:29:11.823Z,11.77
2023-04-05T19:32:00.802Z,4.82
2023-04-05T19:34:49.617Z,9.43
2023-04-05T19:37:38.572Z,7.75
2023-04-05T19:40:32.097Z,10.60
2023-04-05T19:43:20.945Z,6.90
2023-04-05T19:46:13.493Z,6.88
2023-04-05T19:49:08.728Z,9.05
2023-04-05T19:52:02.951Z,7.60
2023-04-05T19:54:52.824Z,6.53
2023-04-05T19:57:43.023Z,4.32
2023-04-05T20:00:33.738Z,5.03
2023-04-05T20:03:30.215Z,7.15
2023-04-05T20:06:22.105Z,2.38
2023-04-05T20:09:11.531Z,5.70
2023-04-05T20:12:01.549Z,3.65
2023-04-05T20:14:52.117Z,4.68
2023-04-05T20:17:43.657Z,5.30
2023-04-05T20:20:32.750Z,5.03
2023-04-05T20:23:22.819Z,4.80
2023-04-05T20:26:14.295Z,3.88
2023-04-05T20:29:03.960Z,1.98
2023-04-05T20:31:54.420Z,3.97
2023-04-05T20:34:46.211Z,3.85
2023-04-05T20:37:35.185Z,1.85
2023-04-05T20:40:23.998Z,3.35
2023-04-05T20:43:12.756Z,3.22
2023-04-05T20:46:02.674Z,2.15
2023-04-05T20:48:55.712Z,3.83
2023-04-05T20:51:44.873Z,3.35
2023-04-05T20:54:34.910Z,2.67
2023-04-05T20:57:23.951Z,1.90
2023-04-05T21:00:14.569Z,2.90
2023-04-05T21:03:03.384Z,2.40
2023-04-05T21:05:53.749Z,2.20
2023-04-05T21:08:43.774Z,1.85
2023-04-05T21:11:32.837Z,3.13
2023-04-05T21:14:21.586Z,3.38
2023-04-05T21:17:10.314Z,5.35
2023-04-05T21:19:59.253Z,3.83
2023-04-05T21:22:49.428Z,1.17
2023-04-05T21:25:38.714Z,3.35
2023-04-05T21:28:28.436Z,3.63
2023-04-05T21:31:17.246Z,1.67
2023-04-05T21:34:06.093Z,7.35
2023-04-05T21:36:54.934Z,1.48
2023-04-05T21:39:45.370Z,4.50
2023-04-05T21:42:34.137Z,1.85
2023-04-05T21:45:23.128Z,3.00
2023-04-05T21:48:11.883Z,2.78
2023-04-05T21:51:00.647Z,5.00
2023-04-05T21:53:49.449Z,2.22
2023-04-05T21:56:39.711Z,3.70
2023-04-05T21:59:28.540Z,5.20
2023-04-05T22:02:17.482Z,1.55
2023-04-05T22:05:07.026Z,0.90
2023-04-05T22:07:55.917Z,1.75
2023-04-05T22:10:45.010Z,0.80
2023-04-05T22:13:35.487Z,2.17
2023-04-05T22:16:24.326Z,0.93
2023-04-05T22:19:13.384Z,1.98
2023-04-05T22:22:02.272Z,2.03
2023-04-05T22:24:51.110Z,1.05
2023-04-05T22:27:39.940Z,1.40
2023-04-05T22:30:40.957Z,1.75
2023-04-05T22:33:32.328Z,1.40
2023-04-05T22:36:21.363Z,1.73
2023-04-05T22:39:10.572Z,0.88
2023-04-05T22:41:59.524Z,1.67
2023-04-05T22:44:48.371Z,1.15
2023-04-05T22:47:38.622Z,1.17
2023-04-05T22:50:27.447Z,1.75
2023-04-05T22:53:16.229Z,0.73
2023-04-05T22:56:04.966Z,1.23
2023-04-05T22:58:53.713Z,0.98
2023-04-05T23:01:42.527Z,0.60
2023-04-05T23:04:32.876Z,0.55
2023-04-05T23:07:21.643Z,0.40
2023-04-05T23:10:11.568Z,0.77
2023-04-05T23:13:00.442Z,0.40
2023-04-05T23:15:49.286Z,0.30
2023-04-05T23:18:38.115Z,1.88
2023-04-05T23:21:28.525Z,0.60
2023-04-05T23:24:17.258Z,0.70
2023-04-05T23:27:06.423Z,0.60
2023-04-05T23:29:55.259Z,0.40
2023-04-05T23:32:44.033Z,0.60
2023-04-05T23:35:32.914Z,0.28
2023-04-05T23:38:23.046Z,0.47
2023-04-05T23:41:11.762Z,0.38
2023-04-05T23:44:01.438Z,0.75
2023-04-05T23:46:50.385Z,0.57
2023-04-05T23:49:39.232Z,0.38
2023-04-05T23:52:28.007Z,0.45
2023-04-05T23:55:18.580Z,1.15
2023-04-05T23:58:07.594Z,0.40
